Time;durP1;ratioP1;P1;durP2;ratioP2;P2;SDS_P1;SDS_P2;PMS_P1;PMS_P2;Temp;Humidity;BMP_temperature;BMP_pressure;BME280_temperature;BME280_humidity;BME280_pressure;Samples;Min_cycle;Max_cycle;Signal;HPM_P1;HPM_P2
2022/03/09 00:01:14;;;;;;;0.10;0.00;;;23.80;99.90;;;;;;5006281;28;20042;-73
2022/03/09 00:03:41;;;;;;;0.00;0.00;;;24.20;99.90;;;;;;5009373;28;20029;-72
2022/03/09 00:06:09;;;;;;;0.10;0.00;;;24.60;99.90;;;;;;5001429;28;20034;-72
2022/03/09 00:08:36;;;;;;;1.23;0.00;;;24.80;99.90;;;;;;4999723;28;20392;-72
2022/03/09 00:11:03;;;;;;;0.00;0.00;;;25.00;99.90;;;;;;4997598;28;20503;-73
2022/03/09 00:13:30;;;;;;;0.00;0.00;;;25.20;99.90;;;;;;5002453;28;20112;-73
2022/03/09 00:15:58;;;;;;;0.63;0.00;;;25.30;99.90;;;;;;4998694;28;20035;-72
2022/03/09 00:18:25;;;;;;;0.00;0.00;;;25.40;99.90;;;;;;5000235;28;20026;-72
2022/03/09 00:20:52;;;;;;;0.10;0.00;;;25.40;99.90;;;;;;4996438;28;20108;-72
2022/03/09 00:23:20;;;;;;;0.00;0.00;;;25.40;99.90;;;;;;4999700;28;20030;-73
2022/03/09 00:25:47;;;;;;;0.10;0.00;;;25.40;99.90;;;;;;5002374;28;20034;-73
2022/03/09 00:28:14;;;;;;;0.00;0.00;;;25.40;99.90;;;;;;5000262;28;20048;-72
2022/03/09 00:30:41;;;;;;;0.70;0.00;;;25.50;99.90;;;;;;4998031;28;20037;-73
2022/03/09 00:33:09;;;;;;;0.10;0.00;;;25.70;99.90;;;;;;5006387;28;20041;-73
2022/03/09 00:35:43;;;;;;;0.00;0.00;;;26.10;99.90;;;;;;5001765;28;20071;-73
2022/03/09 00:38:12;;;;;;;0.00;0.00;;;26.30;99.90;;;;;;5000400;28;20033;-72
2022/03/09 00:40:39;;;;;;;0.00;0.00;;;26.50;99.90;;;;;;4997410;28;20401;-72
2022/03/09 00:43:06;;;;;;;0.55;0.00;;;26.40;99.90;;;;;;5002754;28;20035;-71
2022/03/09 00:45:34;;;;;;;0.08;0.00;;;26.20;99.90;;;;;;5009338;28;20236;-71
2022/03/09 00:48:01;;;;;;;0.00;0.00;;;26.00;99.90;;;;;;5000962;28;20389;-72
2022/03/09 00:50:28;;;;;;;0.20;0.00;;;25.90;99.90;;;;;;4999754;28;20473;-72
2022/03/09 00:52:56;;;;;;;0.10;0.00;;;25.90;99.90;;;;;;4999388;28;20053;-73
2022/03/09 00:55:23;;;;;;;0.13;0.00;;;25.80;99.90;;;;;;4999495;28;20458;-74
2022/03/09 00:57:50;;;;;;;0.00;0.00;;;25.50;99.90;;;;;;4999647;28;20042;-73
2022/03/09 01:00:18;;;;;;;0.03;0.00;;;25.20;99.90;;;;;;4996122;28;20358;-72
2022/03/09 01:02:46;;;;;;;0.00;0.00;;;25.10;99.90;;;;;;5000097;28;20030;-73
2022/03/09 01:05:14;;;;;;;0.30;0.00;;;25.10;99.90;;;;;;5000127;28;20033;-72
2022/03/09 01:07:42;;;;;;;0.00;0.00;;;25.30;99.90;;;;;;5002313;28;20033;-72
2022/03/09 01:10:10;;;;;;;0.00;0.00;;;25.50;99.90;;;;;;5007664;28;20069;-73
2022/03/09 01:12:38;;;;;;;0.00;0.00;;;25.70;99.90;;;;;;5003047;28;20983;-72
2022/03/09 01:15:07;;;;;;;0.15;0.15;;;26.00;99.90;;;;;;5003332;28;20030;-71
2022/03/09 01:17:34;;;;;;;0.00;0.00;;;26.30;99.90;;;;;;5003126;28;20048;-72
2022/03/09 01:20:02;;;;;;;0.00;0.00;;;26.60;99.90;;;;;;5003885;28;20022;-72
2022/03/09 01:22:29;;;;;;;0.00;0.00;;;27.00;99.90;;;;;;5001423;28;20050;-72
2022/03/09 01:24:56;;;;;;;0.00;0.00;;;27.10;99.90;;;;;;5004557;28;20032;-73
2022/03/09 01:27:24;;;;;;;0.68;0.10;;;27.10;99.80;;;;;;5001396;28;20638;-74
2022/03/09 01:29:51;;;;;;;0.00;0.00;;;26.90;99.90;;;;;;5004892;28;20041;-72
2022/03/09 01:32:19;;;;;;;1.50;0.00;;;26.60;99.90;;;;;;5002654;28;20033;-72
2022/03/09 01:34:46;;;;;;;0.10;0.00;;;26.30;99.90;;;;;;5005139;28;20026;-73
2022/03/09 01:37:14;;;;;;;0.00;0.00;;;26.00;99.90;;;;;;5001017;28;20045;-73
2022/03/09 01:39:41;;;;;;;1.02;0.00;;;26.00;99.90;;;;;;5001305;28;20112;-73
2022/03/09 01:42:09;;;;;;;2.28;0.17;;;26.20;99.90;;;;;;5002587;28;20072;-72
2022/03/09 01:44:36;;;;;;;0.75;0.00;;;26.50;99.90;;;;;;5002232;28;20029;-72
2022/03/09 01:47:04;;;;;;;0.05;0.00;;;26.50;99.90;;;;;;5001990;28;20049;-71
2022/03/09 01:49:31;;;;;;;0.45;0.00;;;26.70;99.90;;;;;;5003026;28;20099;-71
2022/03/09 01:52:00;;;;;;;0.00;0.00;;;27.30;99.90;;;;;;5002054;28;20045;-71
2022/03/09 01:54:29;;;;;;;0.00;0.00;;;27.70;99.20;;;;;;5003938;28;20386;-71
2022/03/09 01:56:58;;;;;;;0.10;0.00;;;28.10;98.50;;;;;;5001097;28;20030;-72
2022/03/09 01:59:27;;;;;;;0.00;0.00;;;28.50;98.60;;;;;;5003135;28;20021;-71
2022/03/09 02:01:54;;;;;;;0.00;0.00;;;28.70;97.60;;;;;;5002206;28;20119;-71
2022/03/09 02:04:22;;;;;;;0.00;0.00;;;28.50;97.60;;;;;;5001398;28;20105;-72
2022/03/09 02:06:49;;;;;;;0.05;0.00;;;28.20;97.50;;;;;;5001977;28;20033;-74
2022/03/09 02:12:02;;;;;;;0.00;0.00;;;27.80;97.30;;;;;;5002386;28;20114;-73
2022/03/09 02:14:32;;;;;;;0.10;0.00;;;28.50;97.70;;;;;;5003134;28;20038;-73
2022/03/09 02:17:02;;;;;;;0.30;0.20;;;29.00;97.00;;;;;;5008276;28;20369;-73
2022/03/09 02:19:30;;;;;;;0.20;0.00;;;29.40;96.30;;;;;;5002599;28;20037;-74
2022/03/09 02:22:06;;;;;;;0.10;0.00;;;29.90;96.30;;;;;;5000425;28;20042;-74
2022/03/09 02:24:34;;;;;;;0.00;0.00;;;29.80;96.20;;;;;;5001744;28;20041;-74
2022/03/09 02:27:02;;;;;;;0.20;0.05;;;29.70;96.40;;;;;;5002366;28;20129;-73
2022/03/09 02:29:29;;;;;;;0.00;0.00;;;29.80;96.00;;;;;;5002226;28;20117;-73
2022/03/09 02:31:59;;;;;;;0.03;0.00;;;29.60;95.10;;;;;;5003472;28;20103;-74
2022/03/09 02:34:27;;;;;;;0.22;0.00;;;29.00;95.10;;;;;;5002426;28;20029;-72
2022/03/09 02:36:55;;;;;;;0.63;0.00;;;28.50;95.70;;;;;;5001084;28;20037;-73
2022/03/09 02:39:22;;;;;;;0.00;0.00;;;28.30;96.10;;;;;;5003273;28;20075;-71
2022/03/09 02:41:50;;;;;;;0.00;0.00;;;28.20;96.40;;;;;;4999824;28;20046;-73
2022/03/09 02:44:17;;;;;;;1.25;0.00;;;28.30;96.60;;;;;;5002810;28;20025;-74
2022/03/09 02:46:44;;;;;;;0.00;0.00;;;28.50;96.40;;;;;;5000534;28;20164;-73
2022/03/09 02:49:12;;;;;;;0.00;0.00;;;28.70;96.10;;;;;;5003184;28;20488;-73
2022/03/09 02:51:39;;;;;;;0.00;0.00;;;29.20;95.30;;;;;;5002940;28;20054;-73
2022/03/09 02:54:06;;;;;;;0.10;0.00;;;29.30;94.70;;;;;;5008449;28;20133;-72
2022/03/09 02:56:34;;;;;;;0.00;0.00;;;29.30;95.00;;;;;;5007693;28;20095;-72
2022/03/09 02:59:01;;;;;;;0.10;0.00;;;29.60;95.20;;;;;;5007012;28;20398;-73
2022/03/09 03:01:29;;;;;;;0.45;0.15;;;29.60;94.90;;;;;;5016657;28;20069;-72
2022/03/09 03:03:56;;;;;;;0.00;0.00;;;29.40;94.50;;;;;;5010589;28;20057;-73
2022/03/09 03:06:24;;;;;;;0.00;0.00;;;29.80;95.30;;;;;;5007909;28;20042;-74
2022/03/09 03:08:52;;;;;;;0.75;0.13;;;29.80;94.10;;;;;;5007122;28;20050;-74
2022/03/09 03:11:19;;;;;;;0.15;0.10;;;29.90;94.40;;;;;;4994923;28;20374;-73
2022/03/09 03:13:49;;;;;;;0.00;0.00;;;30.10;93.80;;;;;;4994278;28;20161;-72
2022/03/09 03:16:16;;;;;;;0.47;0.00;;;30.30;94.20;;;;;;5005518;28;20041;-73
2022/03/09 03:18:44;;;;;;;1.00;0.00;;;30.10;93.80;;;;;;5008410;28;20037;-72
2022/03/09 03:21:11;;;;;;;0.00;0.00;;;30.30;93.80;;;;;;5002500;28;20523;-73
2022/03/09 03:23:39;;;;;;;0.00;0.00;;;30.20;93.20;;;;;;5001527;28;20040;-72
2022/03/09 03:26:06;;;;;;;0.20;0.00;;;30.30;93.00;;;;;;5000178;28;20026;-73
2022/03/09 03:28:34;;;;;;;0.00;0.00;;;30.10;93.00;;;;;;5001615;28;20046;-72
2022/03/09 03:31:01;;;;;;;0.00;0.00;;;29.70;93.20;;;;;;4999359;28;20030;-72
2022/03/09 03:33:28;;;;;;;0.00;0.00;;;29.20;93.50;;;;;;5000927;28;20026;-74
2022/03/09 03:35:56;;;;;;;0.05;0.00;;;29.30;94.60;;;;;;4999020;28;20028;-72
2022/03/09 03:38:23;;;;;;;0.10;0.00;;;29.50;93.80;;;;;;4999778;28;20137;-71
2022/03/09 03:40:51;;;;;;;0.10;0.00;;;29.80;93.60;;;;;;4997342;28;20022;-72
2022/03/09 03:43:18;;;;;;;0.30;0.10;;;30.10;93.30;;;;;;4999219;28;21722;-72
2022/03/09 03:45:45;;;;;;;0.25;0.00;;;30.40;94.30;;;;;;4998638;28;20436;-72
2022/03/09 03:48:12;;;;;;;3.30;0.47;;;30.30;93.10;;;;;;4999112;28;20033;-74
2022/03/09 03:50:40;;;;;;;0.00;0.00;;;30.40;92.40;;;;;;5005137;28;20510;-73
2022/03/09 03:53:07;;;;;;;0.32;0.00;;;30.30;92.80;;;;;;4998164;28;20030;-72
2022/03/09 03:55:34;;;;;;;0.00;0.00;;;30.30;92.30;;;;;;4998132;28;20608;-73
2022/03/09 03:58:02;;;;;;;0.00;0.00;;;30.20;92.70;;;;;;5006965;28;20040;-72
2022/03/09 04:00:29;;;;;;;0.10;0.00;;;29.80;91.90;;;;;;5008985;28;20068;-73
2022/03/09 04:02:56;;;;;;;0.03;0.00;;;29.90;92.60;;;;;;5010534;28;20068;-74
2022/03/09 04:05:24;;;;;;;1.65;0.00;;;29.90;92.60;;;;;;5006583;28;20061;-73
2022/03/09 04:07:51;;;;;;;0.00;0.00;;;30.00;93.00;;;;;;5003419;28;20057;-73
2022/03/09 04:10:18;;;;;;;0.55;0.00;;;30.00;92.10;;;;;;5006193;28;20088;-73
2022/03/09 04:12:45;;;;;;;0.00;0.00;;;29.60;92.30;;;;;;5009657;28;20121;-73
2022/03/09 04:15:13;;;;;;;0.20;0.00;;;29.20;92.80;;;;;;5010767;28;20073;-73
2022/03/09 04:17:47;;;;;;;0.22;0.00;;;29.10;93.50;;;;;;5005395;28;20049;-73
2022/03/09 04:20:15;;;;;;;0.00;0.00;;;29.20;94.20;;;;;;5000327;28;20481;-74
2022/03/09 04:22:43;;;;;;;0.20;0.00;;;29.30;93.40;;;;;;5000432;28;20065;-74
2022/03/09 04:25:12;;;;;;;0.05;0.00;;;29.40;94.10;;;;;;5000331;28;20376;-74
2022/03/09 04:27:39;;;;;;;0.00;0.00;;;29.30;93.50;;;;;;5001125;28;20038;-74
2022/03/09 04:30:08;;;;;;;0.00;0.00;;;29.10;93.40;;;;;;5000281;28;20026;-74
2022/03/09 04:32:36;;;;;;;0.08;0.00;;;28.90;93.00;;;;;;5000753;28;20034;-75
2022/03/09 04:35:05;;;;;;;0.00;0.00;;;28.70;93.40;;;;;;5000550;28;20025;-74
2022/03/09 04:37:33;;;;;;;1.08;0.00;;;29.00;93.80;;;;;;5001061;28;20030;-74
2022/03/09 04:40:02;;;;;;;0.00;0.00;;;29.20;93.00;;;;;;5007801;28;20109;-75
2022/03/09 04:42:30;;;;;;;0.00;0.00;;;29.40;93.60;;;;;;5000517;28;20037;-73
2022/03/09 04:44:57;;;;;;;0.22;0.00;;;29.50;91.90;;;;;;5001742;28;20509;-73
2022/03/09 04:47:25;;;;;;;0.00;0.00;;;29.20;92.10;;;;;;5005800;28;20133;-74
2022/03/09 04:49:52;;;;;;;0.00;0.00;;;28.90;92.70;;;;;;5005804;28;20049;-74
2022/03/09 04:52:20;;;;;;;0.00;0.00;;;29.00;92.80;;;;;;5003878;28;20494;-75
2022/03/09 04:54:47;;;;;;;0.10;0.10;;;28.80;92.80;;;;;;5002191;28;20065;-74
2022/03/09 04:57:15;;;;;;;3.53;0.10;;;28.50;92.30;;;;;;5001802;28;20025;-74
2022/03/09 04:59:43;;;;;;;0.00;0.00;;;28.00;93.00;;;;;;5006307;28;20034;-75
2022/03/09 05:02:10;;;;;;;0.63;0.00;;;27.70;93.20;;;;;;5004436;28;20673;-74
2022/03/09 05:04:37;;;;;;;0.00;0.00;;;27.80;93.70;;;;;;5005192;28;20061;-75
2022/03/09 05:07:05;;;;;;;0.03;0.00;;;28.00;93.60;;;;;;5000899;28;20338;-76
2022/03/09 05:09:33;;;;;;;0.00;0.00;;;28.00;93.40;;;;;;5005056;28;20033;-74
2022/03/09 05:12:00;;;;;;;0.30;0.00;;;28.20;94.20;;;;;;5005217;28;20030;-75
2022/03/09 05:14:28;;;;;;;0.00;0.00;;;28.10;93.30;;;;;;5003710;28;20196;-74
2022/03/09 05:16:55;;;;;;;0.00;0.00;;;28.00;93.60;;;;;;5001761;28;20049;-74
2022/03/09 05:19:23;;;;;;;0.00;0.00;;;27.90;93.30;;;;;;5002429;28;20100;-73
2022/03/09 05:21:50;;;;;;;0.00;0.00;;;27.70;93.20;;;;;;5005683;28;20045;-73
2022/03/09 05:24:17;;;;;;;0.00;0.00;;;27.70;93.60;;;;;;5010554;28;22614;-73
2022/03/09 05:26:47;;;;;;;2.10;0.15;;;28.00;93.90;;;;;;5003822;28;20480;-74
2022/03/09 05:29:15;;;;;;;0.00;0.00;;;27.90;93.80;;;;;;5003243;28;20021;-74
2022/03/09 05:31:44;;;;;;;0.00;0.00;;;27.80;93.40;;;;;;5001747;28;20026;-73
2022/03/09 05:34:13;;;;;;;0.73;0.00;;;27.90;93.70;;;;;;5010761;28;20110;-72
2022/03/09 05:36:41;;;;;;;0.03;0.00;;;27.90;93.50;;;;;;5011469;28;20399;-73
2022/03/09 05:39:09;;;;;;;0.30;0.00;;;28.10;93.60;;;;;;5007578;28;20026;-73
2022/03/09 05:41:36;;;;;;;0.10;0.10;;;28.20;94.10;;;;;;4999092;28;20125;-73
2022/03/09 05:44:04;;;;;;;0.20;0.00;;;28.30;93.30;;;;;;5010659;28;20037;-74
2022/03/09 05:46:32;;;;;;;0.00;0.00;;;28.20;93.40;;;;;;5006250;28;20031;-74
2022/03/09 05:49:01;;;;;;;0.15;0.00;;;28.40;93.50;;;;;;5012872;28;20430;-72
2022/03/09 05:51:29;;;;;;;0.00;0.00;;;28.50;92.90;;;;;;5008537;28;20045;-73
2022/03/09 05:53:56;;;;;;;0.40;0.00;;;28.40;92.60;;;;;;5012564;28;20050;-74
2022/03/09 05:56:24;;;;;;;0.00;0.00;;;28.10;92.30;;;;;;5008271;28;20033;-74
2022/03/09 06:02:13;;;;;;;0.00;0.00;;;27.40;92.50;;;;;;5001418;28;20160;-73
2022/03/09 06:04:42;;;;;;;0.45;0.00;;;27.10;92.60;;;;;;5003859;28;20034;-73
2022/03/09 06:07:21;;;;;;;0.90;0.00;;;26.90;93.40;;;;;;5010402;28;20456;-73
2022/03/09 06:09:49;;;;;;;0.13;0.00;;;26.70;93.20;;;;;;5006383;28;20507;-72
2022/03/09 06:12:17;;;;;;;0.00;0.00;;;26.70;93.40;;;;;;5010404;28;20057;-73
2022/03/09 06:14:45;;;;;;;0.00;0.00;;;26.70;93.60;;;;;;5009015;28;20054;-73
2022/03/09 06:17:12;;;;;;;0.98;0.03;;;26.70;93.50;;;;;;5009480;28;20072;-73
2022/03/09 06:19:39;;;;;;;0.08;0.00;;;26.70;93.60;;;;;;4999892;28;20022;-73
2022/03/09 06:22:07;;;;;;;0.00;0.00;;;26.60;93.60;;;;;;5003754;28;20443;-72
2022/03/09 06:24:34;;;;;;;0.08;0.00;;;26.50;93.60;;;;;;5006054;28;20552;-73
2022/03/09 06:27:02;;;;;;;0.80;0.13;;;26.50;93.60;;;;;;5010470;28;20065;-73
2022/03/09 06:29:29;;;;;;;0.32;0.00;;;26.30;93.60;;;;;;5010054;28;20472;-73
2022/03/09 06:31:56;;;;;;;0.22;0.22;;;26.30;93.50;;;;;;5003605;28;20026;-75
2022/03/09 06:34:24;;;;;;;0.00;0.00;;;26.20;93.50;;;;;;5011526;28;20449;-75
2022/03/09 06:36:51;;;;;;;0.00;0.00;;;26.10;93.90;;;;;;5010418;28;20440;-74
2022/03/09 06:39:19;;;;;;;0.00;0.00;;;26.00;93.80;;;;;;5010706;28;20057;-75
2022/03/09 06:41:47;;;;;;;0.00;0.00;;;26.00;94.00;;;;;;5009117;28;20409;-76
2022/03/09 06:44:16;;;;;;;0.00;0.00;;;25.80;93.70;;;;;;5002341;28;20026;-74
2022/03/09 06:46:43;;;;;;;0.00;0.00;;;25.80;94.10;;;;;;5006600;28;20038;-73
2022/03/09 06:49:10;;;;;;;2.38;0.00;;;25.70;93.80;;;;;;5010660;28;20026;-73
2022/03/09 06:51:38;;;;;;;0.20;0.10;;;25.50;93.90;;;;;;5007055;28;20034;-73
2022/03/09 06:54:05;;;;;;;0.63;0.05;;;25.30;94.40;;;;;;4999026;28;20040;-73
2022/03/09 06:56:32;;;;;;;0.22;0.00;;;25.00;94.40;;;;;;5006680;28;20029;-73
2022/03/09 06:59:00;;;;;;;0.00;0.00;;;24.90;94.70;;;;;;5007089;28;20021;-72
2022/03/09 07:01:27;;;;;;;0.00;0.00;;;24.90;95.20;;;;;;5008360;28;20045;-73
2022/03/09 07:03:54;;;;;;;0.20;0.00;;;25.00;94.90;;;;;;5005144;28;20026;-73
2022/03/09 07:06:22;;;;;;;0.30;0.00;;;25.10;94.90;;;;;;5008253;28;20029;-73
2022/03/09 07:08:50;;;;;;;0.75;0.03;;;25.00;94.80;;;;;;5006077;28;20057;-73
2022/03/09 07:11:17;;;;;;;0.63;0.10;;;24.90;94.80;;;;;;5011176;28;20492;-73
2022/03/09 07:13:44;;;;;;;1.90;0.15;;;24.70;94.80;;;;;;5007735;28;20038;-73
2022/03/09 07:16:11;;;;;;;0.32;0.10;;;24.50;95.10;;;;;;5004855;28;20033;-72
2022/03/09 07:18:38;;;;;;;0.10;0.00;;;24.40;95.50;;;;;;5005023;28;20030;-73
2022/03/09 07:21:06;;;;;;;0.20;0.20;;;24.40;95.80;;;;;;5009019;28;20042;-74
2022/03/09 07:23:33;;;;;;;1.65;0.08;;;24.30;95.80;;;;;;5009140;28;20022;-74
2022/03/09 07:26:02;;;;;;;1.40;0.00;;;24.20;96.00;;;;;;5011337;28;20346;-74
2022/03/09 07:28:29;;;;;;;0.00;0.00;;;24.10;96.10;;;;;;4994341;28;20433;-73
2022/03/09 07:30:57;;;;;;;0.35;0.10;;;24.10;95.90;;;;;;5011184;28;20022;-73
2022/03/09 07:33:24;;;;;;;0.95;0.00;;;24.00;96.10;;;;;;5008087;28;20056;-74
2022/03/09 07:35:52;;;;;;;0.20;0.00;;;23.90;96.50;;;;;;5011249;28;20113;-73
2022/03/09 07:38:19;;;;;;;0.10;0.00;;;23.80;96.70;;;;;;5008033;28;20029;-74
2022/03/09 07:40:46;;;;;;;1.40;0.17;;;23.80;96.90;;;;;;5006049;28;20044;-74
2022/03/09 07:43:14;;;;;;;0.60;0.10;;;23.70;97.00;;;;;;5007060;28;20026;-73
2022/03/09 07:45:41;;;;;;;0.13;0.10;;;23.70;97.20;;;;;;5007653;28;20025;-73
2022/03/09 07:48:09;;;;;;;0.57;0.10;;;23.60;97.40;;;;;;5005775;28;20503;-75
2022/03/09 07:50:37;;;;;;;0.32;0.20;;;23.60;97.60;;;;;;5003313;28;20042;-73
2022/03/09 07:53:06;;;;;;;0.10;0.00;;;23.60;97.50;;;;;;5004671;28;20033;-73
2022/03/09 07:55:33;;;;;;;1.75;0.25;;;23.50;97.60;;;;;;5005339;28;20085;-73
2022/03/09 07:58:01;;;;;;;0.20;0.00;;;23.50;97.70;;;;;;5007624;28;20125;-74
2022/03/09 08:00:28;;;;;;;0.08;0.00;;;23.40;97.80;;;;;;5003402;28;20026;-74
2022/03/09 08:02:56;;;;;;;0.30;0.10;;;23.40;97.80;;;;;;5009488;28;20032;-74
2022/03/09 08:05:23;;;;;;;2.45;0.40;;;23.30;98.00;;;;;;5005426;28;20037;-73
2022/03/09 08:07:50;;;;;;;0.43;0.10;;;23.20;98.90;;;;;;5004465;28;20022;-75
2022/03/09 08:10:19;;;;;;;0.70;0.20;;;23.10;98.60;;;;;;5004381;28;20032;-73
2022/03/09 08:12:47;;;;;;;0.63;0.22;;;23.00;98.90;;;;;;5002373;28;20065;-72
2022/03/09 08:15:14;;;;;;;0.40;0.10;;;23.00;99.10;;;;;;4998313;28;20026;-73
2022/03/09 08:17:41;;;;;;;1.25;0.75;;;22.90;99.20;;;;;;5008333;28;20029;-73
2022/03/09 08:20:09;;;;;;;5.40;0.60;;;22.80;99.30;;;;;;5008483;28;20137;-75
2022/03/09 08:22:39;;;;;;;3.97;0.95;;;22.70;99.90;;;;;;5009888;28;20041;-76
2022/03/09 08:25:07;;;;;;;3.03;1.15;;;22.60;99.80;;;;;;5006043;28;20117;-73
2022/03/09 08:27:34;;;;;;;3.15;1.10;;;22.60;99.90;;;;;;4994828;28;20042;-73
2022/03/09 08:30:04;;;;;;;1.15;0.45;;;22.60;99.90;;;;;;5007470;28;20014;-73
2022/03/09 08:32:31;;;;;;;2.08;0.95;;;22.50;99.90;;;;;;5007210;28;20026;-74
2022/03/09 08:34:58;;;;;;;2.03;1.02;;;22.40;99.90;;;;;;5006826;28;20037;-74
2022/03/09 08:37:25;;;;;;;1.08;0.20;;;22.40;99.90;;;;;;5008982;28;20065;-73
2022/03/09 08:43:15;;;;;;;1.50;0.45;;;22.30;99.90;;;;;;5006245;28;20045;-73
2022/03/09 08:45:42;;;;;;;1.67;0.40;;;22.20;99.90;;;;;;4998289;28;20030;-73
2022/03/09 08:48:09;;;;;;;1.27;0.30;;;22.10;99.90;;;;;;5006879;28;20510;-74
2022/03/09 08:50:37;;;;;;;0.20;0.15;;;22.10;99.90;;;;;;5003907;28;20026;-74
2022/03/09 08:53:04;;;;;;;2.13;0.20;;;22.10;99.90;;;;;;5003261;28;20150;-74
2022/03/09 08:55:33;;;;;;;2.38;0.35;;;22.10;99.90;;;;;;5004350;28;20058;-73
2022/03/09 08:58:00;;;;;;;2.60;0.82;;;22.00;99.90;;;;;;5009307;28;20044;-74
2022/03/09 09:00:28;;;;;;;2.50;0.35;;;22.00;99.90;;;;;;5003033;28;20057;-74
2022/03/09 09:02:55;;;;;;;5.30;0.50;;;21.90;99.90;;;;;;5006329;28;20080;-74
2022/03/09 09:05:23;;;;;;;3.55;1.25;;;21.80;99.90;;;;;;5006100;28;20496;-74
2022/03/09 09:07:50;;;;;;;4.45;1.33;;;21.70;99.90;;;;;;5007393;28;20052;-74
2022/03/09 09:10:18;;;;;;;5.35;1.00;;;21.60;99.90;;;;;;5005508;28;20388;-73
2022/03/09 09:12:50;;;;;;;3.47;0.70;;;21.40;99.90;;;;;;5009588;28;20042;-75
2022/03/09 09:15:17;;;;;;;7.57;1.42;;;21.40;99.90;;;;;;5011699;28;20360;-73
2022/03/09 09:17:45;;;;;;;2.10;0.90;;;21.20;99.90;;;;;;5011175;28;20053;-73
2022/03/09 09:20:13;;;;;;;8.45;0.73;;;21.10;99.90;;;;;;5002424;28;20060;-73
2022/03/09 09:22:43;;;;;;;3.80;0.80;;;21.00;99.90;;;;;;5006551;28;20038;-73
2022/03/09 09:25:11;;;;;;;5.57;2.00;;;21.00;99.90;;;;;;5007502;28;20404;-74
2022/03/09 09:27:38;;;;;;;8.15;1.23;;;20.80;99.90;;;;;;5008745;28;20045;-74
2022/03/09 09:30:07;;;;;;;8.57;1.25;;;20.80;99.90;;;;;;5009597;28;20026;-74
2022/03/09 09:32:34;;;;;;;8.45;1.50;;;20.70;99.90;;;;;;5012981;28;20041;-74
2022/03/09 09:35:01;;;;;;;5.28;1.42;;;20.70;99.90;;;;;;5010839;28;20582;-73
2022/03/09 09:37:29;;;;;;;5.20;0.70;;;20.60;99.90;;;;;;5003221;28;20034;-74
2022/03/09 09:39:56;;;;;;;5.60;0.88;;;20.60;99.90;;;;;;5002471;28;20441;-74
2022/03/09 09:42:31;;;;;;;2.88;0.60;;;20.60;99.90;;;;;;5012307;28;20037;-74
2022/03/09 09:45:00;;;;;;;3.63;1.00;;;20.50;99.90;;;;;;5009328;28;20120;-74
2022/03/09 09:47:32;;;;;;;3.45;1.02;;;20.40;99.90;;;;;;5010174;28;20117;-74
2022/03/09 09:50:02;;;;;;;4.78;1.45;;;20.50;99.90;;;;;;4996700;28;20097;-74
2022/03/09 09:52:36;;;;;;;3.45;1.10;;;20.40;99.90;;;;;;5010110;28;20042;-75
2022/03/09 09:55:04;;;;;;;10.60;1.05;;;20.30;99.90;;;;;;5009366;28;20042;-73
2022/03/09 09:57:32;;;;;;;4.75;1.20;;;20.30;99.90;;;;;;5006452;28;20064;-75
2022/03/09 10:00:00;;;;;;;4.43;0.52;;;20.30;99.90;;;;;;5008485;28;20045;-74
2022/03/09 10:02:27;;;;;;;4.88;1.15;;;20.30;99.90;;;;;;5012071;28;20046;-74
2022/03/09 10:04:54;;;;;;;6.60;1.25;;;20.20;99.90;;;;;;5009160;28;20028;-74
2022/03/09 10:07:22;;;;;;;6.70;0.60;;;20.20;99.90;;;;;;5013083;28;20048;-73
2022/03/09 10:09:49;;;;;;;5.75;1.30;;;20.20;99.90;;;;;;4998842;28;20042;-73
2022/03/09 10:12:27;;;;;;;3.28;1.10;;;20.20;99.90;;;;;;5006041;28;20222;-74
2022/03/09 10:14:55;;;;;;;9.68;1.50;;;20.10;99.90;;;;;;5007820;28;20433;-73
2022/03/09 10:17:26;;;;;;;3.72;0.80;;;20.10;99.90;;;;;;5010360;28;20088;-73
2022/03/09 10:19:58;;;;;;;5.13;0.80;;;20.10;99.90;;;;;;5010203;28;20108;-73
2022/03/09 10:22:29;;;;;;;3.05;1.00;;;20.00;99.90;;;;;;5005943;28;20050;-74
2022/03/09 10:25:14;;;;;;;5.07;0.63;;;20.00;99.90;;;;;;5007128;28;20113;-73
2022/03/09 10:27:52;;;;;;;5.80;0.98;;;20.00;99.90;;;;;;5007811;28;20038;-74
2022/03/09 10:30:22;;;;;;;4.43;1.10;;;19.90;99.90;;;;;;5011881;28;20026;-73
2022/03/09 10:32:57;;;;;;;3.55;0.80;;;19.90;99.90;;;;;;5013007;28;20036;-74
2022/03/09 10:35:33;;;;;;;8.48;0.63;;;19.80;99.90;;;;;;5009776;28;20069;-74
2022/03/09 10:38:23;;;;;;;3.80;0.63;;;19.70;99.90;;;;;;5007934;28;20101;-73
2022/03/09 10:40:58;;;;;;;6.38;1.73;;;19.70;99.90;;;;;;5007602;28;20612;-74
2022/03/09 10:43:30;;;;;;;3.97;0.55;;;19.60;99.90;;;;;;5003007;28;20108;-73
2022/03/09 10:46:04;;;;;;;5.28;0.85;;;19.50;99.90;;;;;;5020230;28;20034;-73
2022/03/09 10:48:56;;;;;;;3.50;0.50;;;19.50;99.90;;;;;;4999530;28;20080;-74
2022/03/09 10:51:41;;;;;;;9.75;1.58;;;19.50;99.90;;;;;;5002021;28;20034;-73
2022/03/09 10:54:12;;;;;;;7.35;0.90;;;19.40;99.90;;;;;;5007454;28;20412;-74
2022/03/09 10:56:39;;;;;;;6.82;1.00;;;19.40;99.90;;;;;;5008495;28;20526;-73
2022/03/09 10:59:14;;;;;;;5.50;0.75;;;19.40;99.90;;;;;;5007297;28;20037;-72
2022/03/09 11:01:43;;;;;;;4.40;0.97;;;19.30;99.90;;;;;;5010097;28;20041;-73
2022/03/09 11:04:20;;;;;;;4.45;1.65;;;19.30;99.90;;;;;;5006523;28;20147;-73
2022/03/09 11:06:48;;;;;;;6.40;1.08;;;19.30;99.90;;;;;;5005803;28;20738;-73
2022/03/09 11:09:17;;;;;;;5.80;0.77;;;19.20;99.90;;;;;;5004121;28;20077;-73
2022/03/09 11:11:49;;;;;;;3.53;0.70;;;19.20;99.90;;;;;;5008674;28;20674;-72
2022/03/09 11:14:19;;;;;;;4.22;0.90;;;19.20;99.90;;;;;;5004742;28;20033;-72
2022/03/09 11:16:48;;;;;;;7.35;1.20;;;19.20;99.90;;;;;;5005694;28;20069;-74
2022/03/09 11:19:16;;;;;;;3.33;1.70;;;19.10;99.90;;;;;;5005407;28;20022;-73
2022/03/09 11:21:44;;;;;;;11.30;1.48;;;19.10;99.90;;;;;;5006309;28;20046;-73
2022/03/09 11:24:13;;;;;;;3.42;0.43;;;19.00;99.90;;;;;;5004995;28;20507;-74
2022/03/09 11:26:44;;;;;;;8.57;1.38;;;19.00;99.90;;;;;;4996067;28;20353;-73
2022/03/09 11:29:12;;;;;;;4.93;0.93;;;19.00;99.90;;;;;;4996764;28;20141;-76
2022/03/09 11:31:52;;;;;;;3.42;0.90;;;19.00;99.90;;;;;;5000514;28;20535;-74
2022/03/09 11:34:38;;;;;;;5.15;0.50;;;19.00;99.90;;;;;;4996574;28;20038;-74
2022/03/09 11:37:35;;;;;;;4.83;1.07;;;19.00;99.90;;;;;;4995737;28;20030;-73
2022/03/09 11:40:08;;;;;;;2.72;0.60;;;19.00;99.90;;;;;;5004458;28;20033;-73
2022/03/09 11:42:39;;;;;;;2.47;0.60;;;19.00;99.90;;;;;;5005582;28;20061;-72
2022/03/09 11:45:16;;;;;;;5.43;0.90;;;18.90;99.90;;;;;;5008867;28;20099;-73
2022/03/09 11:48:04;;;;;;;3.85;0.98;;;18.90;99.90;;;;;;5006590;28;20098;-74
2022/03/09 11:50:35;;;;;;;1.27;0.38;;;18.80;99.90;;;;;;4998464;28;20038;-73
2022/03/09 11:53:08;;;;;;;3.53;0.50;;;18.80;99.90;;;;;;5001182;28;20435;-73
2022/03/09 11:55:36;;;;;;;4.15;0.73;;;18.80;99.90;;;;;;5008800;28;20049;-73
2022/03/09 11:58:05;;;;;;;3.00;1.67;;;18.80;99.90;;;;;;5003511;28;20022;-73
2022/03/09 12:00:32;;;;;;;9.13;1.00;;;18.80;99.90;;;;;;5007924;28;20049;-73
2022/03/09 12:03:00;;;;;;;4.97;1.08;;;18.70;99.90;;;;;;5006467;28;20403;-74
2022/03/09 12:05:37;;;;;;;3.40;0.63;;;18.70;99.90;;;;;;5013334;28;20026;-73
2022/03/09 12:08:15;;;;;;;4.20;0.80;;;18.70;99.90;;;;;;5007586;28;20026;-74
2022/03/09 12:11:09;;;;;;;2.78;0.60;;;18.60;99.90;;;;;;5004175;28;20062;-72
2022/03/09 12:13:47;;;;;;;4.35;0.68;;;18.60;99.90;;;;;;4998150;28;20044;-73
2022/03/09 12:16:15;;;;;;;2.10;0.40;;;18.50;99.90;;;;;;5006193;28;20046;-73
2022/03/09 12:19:00;;;;;;;3.33;0.73;;;18.40;99.90;;;;;;4995646;28;20121;-72
2022/03/09 12:21:27;;;;;;;3.65;0.50;;;18.40;99.90;;;;;;5000558;28;20884;-75
2022/03/09 12:24:08;;;;;;;5.38;0.68;;;18.40;99.90;;;;;;5003237;28;20113;-72
2022/03/09 12:26:42;;;;;;;2.92;0.35;;;18.40;99.90;;;;;;5010325;28;20168;-73
2022/03/09 12:29:21;;;;;;;1.35;0.35;;;18.30;99.90;;;;;;5005878;28;20036;-73
2022/03/09 12:32:01;;;;;;;6.55;0.55;;;18.30;99.90;;;;;;5004337;28;20109;-73
2022/03/09 12:34:31;;;;;;;3.25;0.40;;;18.30;99.90;;;;;;5007500;28;20108;-74
2022/03/09 12:36:59;;;;;;;2.42;0.40;;;18.20;99.90;;;;;;5004837;28;20034;-73
2022/03/09 12:39:26;;;;;;;3.13;0.50;;;18.20;99.90;;;;;;5001985;28;20057;-73
2022/03/09 12:41:56;;;;;;;6.13;0.70;;;18.10;99.90;;;;;;4999309;28;20042;-73
2022/03/09 12:44:24;;;;;;;3.55;0.40;;;18.10;99.90;;;;;;5002371;28;20030;-73
2022/03/09 12:46:53;;;;;;;4.05;0.55;;;18.10;99.90;;;;;;4999242;28;20026;-74
2022/03/09 12:49:43;;;;;;;4.50;0.60;;;18.10;99.90;;;;;;5004944;28;20072;-74
2022/03/09 12:52:13;;;;;;;4.80;0.68;;;18.10;99.90;;;;;;5005447;28;20389;-73
2022/03/09 12:54:47;;;;;;;3.38;0.57;;;18.10;99.90;;;;;;5008230;28;20140;-74
2022/03/09 12:57:21;;;;;;;4.88;0.75;;;18.00;99.90;;;;;;5009136;28;20034;-74
2022/03/09 13:00:13;;;;;;;4.65;0.50;;;18.10;99.90;;;;;;5006706;28;20030;-73
2022/03/09 13:02:49;;;;;;;7.07;0.60;;;18.10;99.90;;;;;;5007396;28;20044;-73
2022/03/09 13:05:21;;;;;;;5.57;0.80;;;18.10;99.90;;;;;;5005238;28;20026;-73
2022/03/09 13:07:59;;;;;;;3.83;0.30;;;18.10;99.90;;;;;;5010532;28;20030;-74